Terminal Aerodrome Forecast
Issued by NWS Wilmington, OH

Current Version | Previous Version | Text Only | Print | Product List | Glossary Off
Versions: 1 2 3 4 5 6 7 8 9 10 11 12 13 14 15

653
FTUS41 KILN 182337
TAFDAY
TAF
KDAY 182337Z 1900/1924 VRB05KT P6SM -RA OVC050
     FM190100 29012KT P6SM OVC045
     FM190600 29014G25KT P6SM VCSH OVC012
     FM190800 28013G22KT P6SM -SHRASN OVC012
     FM191100 34013G20KT P6SM VCSH OVC007
     FM191300 33012G20KT P6SM OVC015
     FM191500 32014G20KT P6SM BKN025
     FM191900 32015G22KT P6SM SCT070=

USA.gov is the U.S. government's official web portal to all federal, state and local government web resources and services.